• Join FlightAware (Why Join?)
  • Login
  • US Flag 
06:09PM EDT


 

Airport Tracker/Info


-or-


 

Live Flight TrackerFlight Track Log ✈ WIG7117 ✈ 23-Jul-2013 ✈ KALB - KSYR

Flight Track Log - Related Links

Times and Time Zones

All times are in EDT time to prevent confusion due to time zone crossing. See the WIG7117 flight status page for this flight to view local times or setup timezone preferences in your user account.

Time Position Orientation Groundspeed Altitude Reporting Facility
EDT Latitude Longitude Course Direction KTS MPH feet Rate Location/Type
10:21PM 42.7403 -73.8083 261° West 80 92 900  Level Boston Center
10:22PM 42.7378 -73.8308 261° West 73 84 1,800 1,080 Climbing Boston Center
10:23PM 42.7436 -73.8706 281° West 105 121 3,100 1,140 Climbing Boston Center
10:24PM 42.7494 -73.9075 282° West 100 115 4,400 1,080 Climbing Boston Center
10:25PM 42.7572 -73.9500 284° West 103 119 5,500 1,140 Climbing Boston Center
10:26PM 42.7608 -73.9897 277° West 109 125 6,700 1,140 Climbing Boston Center
10:27PM 42.7706 -74.0297 288° West 112 129 7,900 1,080 Climbing Boston Center
10:28PM 42.7764 -74.0667 282° West 111 128 8,800 900 Climbing Boston Center
10:29PM 42.7842 -74.1064 285° West 117 135 9,600 600 Climbing Boston Center
10:30PM 42.7939 -74.1547 285° West 127 146 10,000 180 Climbing Boston Center
10:31PM 42.8014 -74.2117 280° West 160 184 10,000  Level Boston Center
10:32PM 42.8089 -74.2683 280° West 155 178 10,000  Level Boston Center
10:33PM 42.8225 -74.3283 287° West 152 175 10,000  Level Boston Center
10:34PM 42.8297 -74.3878 279° West 153 176 10,000  Level Boston Center
10:35PM 42.8411 -74.4506 284° West 154 177 10,000  Level Boston Center
10:36PM 42.8528 -74.5047 286° West 150 173 10,000  Level Boston Center
10:37PM 42.8600 -74.5617 280° West 150 173 10,000  Level Boston Center
10:38PM 42.8694 -74.6158 283° West 152 175 10,000  Level Boston Center
10:39PM 42.8767 -74.6700 280° West 152 175 10,000  Level Boston Center
10:40PM 42.8881 -74.7242 286° West 152 175 10,000  Level Boston Center
10:41PM 42.8972 -74.7811 282° West 151 174 10,000  Level Boston Center
10:42PM 42.9067 -74.8383 283° West 148 170 10,000  Level Boston Center
10:43PM 42.9178 -74.8953 285° West 150 173 10,000  Level Boston Center
10:44PM 42.9250 -74.9494 280° West 152 175 10,000  Level Boston Center
10:45PM 42.9364 -75.0039 286° West 152 175 10,000  Level Boston Center
10:46PM 42.9456 -75.0611 282° West 151 174 10,000 -180 Level Boston Center
10:47PM 42.9525 -75.1181 279° West 151 174 9,700 -780 Descending Boston Center
10:48PM 42.9633 -75.1839 283° West 180 207 8,500 -1,080 Descending Boston Center
10:49PM 42.9722 -75.2467 281° West 176 203 7,600 -840 Descending Boston Center
10:50PM 42.9853 -75.3125 285° West 164 189 6,900 -780 Descending Boston Center
10:51PM 42.9964 -75.3700 285° West 159 183 6,100 -540 Descending Boston Center
10:52PM 43.0031 -75.4269 279° West 149 171 5,900 -600 Descending Boston Center
10:53PM 43.0142 -75.4842 285° West 155 178 5,000 -900 Descending Boston Center
10:54PM 43.0231 -75.5417 282° West 162 186 4,100 -840 Descending Boston Center
10:55PM 43.0319 -75.6017 281° West 157 181 3,400 -600 Descending Boston Center
10:56PM 43.0406 -75.6589 282° West 155 178 3,000 -240 Descending Boston Center
10:58PM 43.0472 -75.7161 279° West 135 155 3,000  Level Boston Center
10:59PM 43.0583 -75.7678 286° West 133 153 3,000  Level Boston Center
11:00PM 43.0694 -75.8111 289° West 132 152 3,000  Level Boston Center
11:01PM 43.0786 -75.8600 284° West 131 151 3,000  Level Boston Center
11:02PM 43.0872 -75.9203 281° West 132 152 3,000 -420 Level Boston Center
11:03PM 43.0981 -75.9719 286° West 144 166 2,200 -780 Descending Boston Center
11:04PM 43.1092 -76.0211 287° West 149 171 1,500 -720 Descending Boston Center
11:05PM 43.1097 -76.0667 271° West 100 115 900 -600 Descending Boston Center